sim
Sign-in with your pilot id or email,
or register
Callsign
Passwort

Schedule Details

Flight Number: OEO4667
Departure: Toulouse Blagnac Airport (LFBO) at 16:20
Arrival: Munich Airport (EDDM) at 18:10

Weather Information
Getting current METAR information for LFBO 210200Z AUTO 24006KT 9999 FEW018 SCT035 BKN049 18/16 Q1017 TEMPO BKN012 SCT040TCU
Getting current METAR information for EDDM 210150Z VRB01KT CAVOK 08/08 Q1016 NOSIG

Schedule Frequency

Route Map